createdAt,value
2019-01-23T00:05:29.962Z,56.5
2019-01-23T00:20:38.977Z,56
2019-01-23T00:35:48.571Z,56.4
2019-01-23T00:50:58.180Z,56.7
2019-01-23T01:06:07.726Z,57
2019-01-23T01:21:17.280Z,56.5
2019-01-23T01:36:23.027Z,56.6
2019-01-23T01:51:36.341Z,57.2
2019-01-23T02:06:46.149Z,58.1
2019-01-23T04:08:00.895Z,62.2
2019-01-23T04:23:10.166Z,63.1
2019-01-23T04:38:19.332Z,64.4
2019-01-23T04:53:25.516Z,65.3
2019-01-23T05:08:37.664Z,65.8
2019-01-23T05:23:46.839Z,66.4
2019-01-23T05:38:55.915Z,65.9
2019-01-23T05:54:05.001Z,66.2
2019-01-23T06:09:15.537Z,65.2
2019-01-23T06:24:23.258Z,65
2019-01-23T06:39:32.350Z,65.5
2019-01-23T06:54:41.489Z,65
2019-01-23T07:09:50.693Z,64.5
2019-01-23T07:24:59.657Z,63.4
2019-01-23T07:40:08.826Z,63.8
2019-01-23T07:55:18.009Z,62.8
2019-01-23T08:10:24.674Z,62
2019-01-23T08:25:36.513Z,63.2
2019-01-23T08:40:46.130Z,55.2
2019-01-23T08:55:55.441Z,55.6
2019-01-23T09:10:59.291Z,54.8
2019-01-23T09:26:14.814Z,55.1
2019-01-23T09:41:24.977Z,53.7
2019-01-23T09:56:34.874Z,53.4
2019-01-23T10:11:44.730Z,50.9
2019-01-23T10:26:55.087Z,49.2
2019-01-23T10:42:06.001Z,43.5
2019-01-23T10:57:18.769Z,37.5
2019-01-23T11:12:32.457Z,33.9
2019-01-23T11:27:46.762Z,32.9
2019-01-23T11:42:57.215Z,31.8
2019-01-23T11:58:13.025Z,32.1
2019-01-23T12:13:25.311Z,31.4
2019-01-23T12:28:38.141Z,28.2
2019-01-23T12:43:51.995Z,26.6
2019-01-23T12:58:59.640Z,25.2
2019-01-23T13:14:22.404Z,23.4
2019-01-23T13:29:37.704Z,26.1
2019-01-23T13:44:52.607Z,26.9
2019-01-23T14:00:07.296Z,28
2019-01-23T14:15:21.575Z,30.1
2019-01-23T14:30:27.211Z,34.2
2019-01-23T14:45:46.044Z,41
2019-01-23T15:00:56.765Z,46.2
2019-01-23T15:16:07.149Z,48.7
2019-01-23T15:31:17.196Z,51.4
2019-01-23T15:46:24.800Z,53.9
2019-01-23T16:01:36.525Z,56.9
2019-01-23T16:16:45.927Z,57.5
2019-01-23T16:31:55.227Z,58.9
2019-01-23T16:46:56.971Z,58.6
2019-01-23T17:02:13.957Z,61.4
2019-01-23T17:17:23.214Z,61.6
2019-01-23T17:32:32.709Z,61.4
2019-01-23T17:47:41.978Z,60.9
2019-01-23T18:02:53.144Z,60.2
2019-01-23T18:18:01.198Z,57.1
2019-01-23T18:33:10.984Z,56
2019-01-23T18:48:20.823Z,57.2
2019-01-23T19:03:26.407Z,57
2019-01-23T19:18:40.247Z,55.9
2019-01-23T19:33:50.044Z,55
2019-01-23T19:48:59.759Z,55
2019-01-23T20:04:09.512Z,55.8
2019-01-23T20:19:19.075Z,56
2019-01-23T20:34:28.779Z,56.5
2019-01-23T20:49:38.440Z,56.5
2019-01-23T21:04:48.801Z,53.6
2019-01-23T21:19:57.565Z,55.5
2019-01-23T21:35:08.491Z,56.2
2019-01-23T21:50:18.142Z,56.7
2019-01-23T22:05:27.976Z,56.9
2019-01-23T22:20:31.218Z,57.6
2019-01-23T22:35:46.766Z,59.5
2019-01-23T22:50:56.318Z,60.2
2019-01-23T23:06:05.905Z,59
2019-01-23T23:21:15.588Z,57.6
2019-01-23T23:36:25.235Z,57.2
2019-01-23T23:51:34.864Z,57
